createdAt,value
2019-01-16T00:00:59.537Z,9.90
2019-01-16T00:01:59.489Z,8.60
2019-01-16T00:02:59.470Z,8.70
2019-01-16T00:03:59.483Z,9.40
2019-01-16T00:04:59.445Z,10.80
2019-01-16T00:05:59.437Z,11.20
2019-01-16T00:06:59.434Z,10.20
2019-01-16T00:07:59.420Z,9.50
2019-01-16T00:08:59.468Z,12.90
2019-01-16T00:09:59.395Z,12.30
2019-01-16T00:10:59.383Z,9.80
2019-01-16T00:11:59.380Z,11.80
2019-01-16T00:12:59.373Z,10.30
2019-01-16T00:13:59.350Z,11.90
2019-01-16T00:14:59.381Z,11.00
2019-01-16T00:15:59.370Z,12.60
2019-01-16T00:16:59.327Z,13.60
2019-01-16T00:17:59.362Z,12.30
2019-01-16T00:18:59.301Z,10.40
2019-01-16T00:19:59.315Z,10.00
2019-01-16T00:20:59.287Z,10.40
2019-01-16T00:21:59.270Z,12.60
2019-01-16T00:22:59.261Z,11.90
2019-01-16T00:23:59.246Z,10.70
2019-01-16T00:24:59.273Z,11.30
2019-01-16T00:25:59.236Z,11.90
2019-01-16T00:26:59.240Z,11.60
2019-01-16T00:27:59.207Z,11.60
2019-01-16T00:28:59.209Z,12.30
2019-01-16T00:29:59.215Z,12.30
2019-01-16T00:30:59.180Z,13.40
2019-01-16T00:31:59.174Z,12.10
2019-01-16T00:32:59.196Z,9.40
2019-01-16T00:33:59.176Z,10.40
2019-01-16T00:34:59.134Z,12.70
2019-01-16T00:35:59.147Z,10.60
2019-01-16T00:36:59.111Z,11.00
2019-01-16T00:37:59.141Z,14.40
2019-01-16T00:38:59.093Z,12.70
2019-01-16T00:39:59.100Z,12.90
2019-01-16T00:40:59.090Z,13.10
2019-01-16T00:41:59.070Z,9.50
2019-01-16T00:42:59.054Z,12.90
2019-01-16T00:43:59.040Z,10.00
2019-01-16T00:44:59.029Z,13.80
2019-01-16T00:45:59.043Z,9.90
2019-01-16T00:46:59.014Z,12.90
2019-01-16T00:47:59.002Z,10.00
2019-01-16T00:48:58.993Z,12.80
2019-01-16T00:49:58.979Z,13.00
2019-01-16T00:50:58.986Z,11.50
2019-01-16T00:51:58.960Z,9.70
2019-01-16T00:52:58.952Z,12.50
2019-01-16T00:53:58.936Z,12.30
2019-01-16T00:54:58.947Z,11.80
2019-01-16T00:55:58.980Z,12.20
2019-01-16T00:56:58.910Z,11.10
2019-01-16T00:57:58.915Z,16.30
2019-01-16T00:58:58.937Z,12.30
2019-01-16T00:59:58.891Z,10.80
2019-01-16T01:00:58.871Z,12.80
2019-01-16T01:01:58.883Z,11.90
2019-01-16T01:02:58.846Z,14.60
2019-01-16T01:03:58.833Z,10.30
2019-01-16T01:04:58.824Z,12.50
2019-01-16T01:05:58.828Z,11.10
2019-01-16T01:06:58.840Z,10.40
2019-01-16T01:07:58.837Z,12.00
2019-01-16T01:08:58.783Z,12.20
2019-01-16T01:09:58.767Z,9.90
2019-01-16T01:10:58.759Z,12.70
2019-01-16T01:11:58.770Z,10.40
2019-01-16T01:12:58.739Z,12.20
2019-01-16T01:13:58.727Z,11.80
2019-01-16T01:14:58.717Z,9.90
2019-01-16T01:15:58.725Z,11.40
2019-01-16T01:16:58.720Z,10.20
2019-01-16T01:17:58.721Z,11.10
2019-01-16T01:18:58.680Z,11.50
2019-01-16T01:19:58.664Z,10.50
2019-01-16T01:20:58.660Z,10.10
2019-01-16T01:21:58.675Z,9.90
2019-01-16T01:22:58.655Z,13.00
2019-01-16T01:23:58.629Z,10.00
2019-01-16T01:24:58.620Z,10.80
2019-01-16T01:25:58.613Z,13.50
2019-01-16T01:26:58.618Z,11.10
2019-01-16T01:27:58.586Z,13.30
2019-01-16T01:28:58.614Z,8.80
2019-01-16T01:29:58.563Z,10.00
2019-01-16T01:30:58.587Z,10.30
2019-01-16T01:31:58.565Z,11.20
2019-01-16T01:32:58.533Z,9.90
2019-01-16T01:33:58.520Z,10.60
2019-01-16T01:34:58.506Z,9.10
2019-01-16T01:35:58.502Z,13.20
2019-01-16T01:36:58.496Z,10.00
2019-01-16T01:37:58.527Z,10.70
2019-01-16T01:38:58.477Z,11.80
2019-01-16T01:39:58.456Z,9.70
2019-01-16T01:40:58.445Z,11.20
2019-01-16T01:41:58.468Z,14.20
2019-01-16T01:42:58.455Z,10.90
2019-01-16T01:43:58.417Z,11.10
2019-01-16T01:44:58.405Z,11.40
2019-01-16T01:45:58.397Z,11.20
2019-01-16T01:46:58.385Z,9.50
2019-01-16T01:47:58.372Z,11.40
2019-01-16T01:48:58.390Z,12.30
2019-01-16T01:49:58.358Z,13.30
2019-01-16T01:50:58.346Z,11.90
2019-01-16T01:51:58.351Z,12.70
2019-01-16T01:52:58.344Z,10.80
2019-01-16T01:53:58.335Z,9.30
2019-01-16T01:54:58.298Z,10.70
2019-01-16T01:55:58.326Z,13.20
2019-01-16T01:56:58.282Z,11.00
2019-01-16T01:57:58.284Z,12.60
2019-01-16T01:58:58.319Z,9.10
2019-01-16T01:59:58.249Z,10.70
2019-01-16T02:00:58.288Z,10.40
2019-01-16T02:01:58.224Z,11.40
2019-01-16T02:02:58.240Z,10.50
2019-01-16T02:03:58.230Z,10.80
2019-01-16T02:04:58.198Z,10.30
2019-01-16T02:05:58.194Z,9.50
2019-01-16T02:06:58.185Z,9.70
2019-01-16T02:07:58.187Z,9.20
2019-01-16T02:08:58.206Z,10.70
2019-01-16T02:09:58.151Z,8.40
2019-01-16T02:10:58.146Z,10.40
2019-01-16T02:11:58.150Z,10.20
2019-01-16T02:12:58.105Z,9.60
2019-01-16T02:13:58.097Z,9.10
2019-01-16T02:14:58.124Z,10.10
2019-01-16T02:15:58.089Z,10.70
2019-01-16T02:16:58.066Z,9.10
2019-01-16T02:17:58.058Z,7.30
2019-01-16T02:18:58.062Z,9.00
2019-01-16T02:19:58.030Z,10.40
2019-01-16T02:20:58.068Z,11.10
2019-01-16T02:21:58.013Z,9.80
2019-01-16T02:22:58.004Z,11.60
2019-01-16T02:23:58.014Z,8.40
2019-01-16T02:24:57.984Z,10.60
2019-01-16T02:25:57.996Z,9.10
2019-01-16T02:26:57.960Z,12.70
2019-01-16T02:27:57.951Z,8.70
2019-01-16T02:28:57.985Z,11.00
2019-01-16T02:29:57.977Z,10.20
2019-01-16T02:30:57.920Z,8.50
2019-01-16T02:31:57.906Z,8.40
2019-01-16T02:32:57.897Z,9.40
2019-01-16T02:33:57.888Z,7.10
2019-01-16T02:34:58.849Z,8.80
2019-01-16T02:35:57.867Z,8.60
2019-01-16T02:36:57.857Z,10.80
2019-01-16T02:37:57.846Z,8.80
2019-01-16T02:38:57.860Z,8.60
2019-01-16T02:39:57.839Z,9.50
2019-01-16T02:40:57.838Z,8.60
2019-01-16T02:41:57.801Z,9.70
2019-01-16T02:42:57.790Z,11.80
2019-01-16T02:43:57.782Z,11.80
2019-01-16T02:44:57.782Z,11.40
2019-01-16T02:45:57.789Z,9.30
2019-01-16T02:46:57.752Z,9.80
2019-01-16T02:47:57.740Z,8.90
2019-01-16T02:48:57.734Z,11.90
2019-01-16T02:49:57.731Z,9.30
2019-01-16T02:50:57.726Z,11.00
2019-01-16T02:51:57.693Z,10.90
2019-01-16T02:52:57.693Z,8.70
2019-01-16T02:53:57.693Z,9.20
2019-01-16T02:54:57.666Z,11.30
2019-01-16T02:55:57.858Z,9.40
2019-01-16T02:56:57.804Z,7.00
2019-01-16T03:01:38.175Z,8.80
2019-01-16T03:02:38.139Z,8.00
2019-01-16T03:03:38.213Z,10.20
2019-01-16T03:04:38.066Z,9.50
2019-01-16T03:05:38.063Z,8.60
2019-01-16T03:06:38.061Z,8.20
2019-01-16T03:07:38.022Z,8.60
2019-01-16T03:08:38.011Z,13.00
2019-01-16T03:09:38.006Z,7.00
2019-01-16T03:10:37.993Z,8.30
2019-01-16T03:11:38.011Z,10.60
2019-01-16T03:12:37.988Z,7.90
2019-01-16T03:13:38.064Z,6.80
2019-01-16T03:14:37.954Z,8.00
2019-01-16T03:15:37.935Z,9.80
2019-01-16T03:16:37.925Z,6.80
2019-01-16T03:17:37.955Z,5.60
2019-01-16T03:18:37.908Z,9.90
2019-01-16T03:19:37.900Z,8.20
2019-01-16T03:20:37.885Z,10.90
2019-01-16T03:21:37.870Z,8.40
2019-01-16T03:22:37.930Z,8.60
2019-01-16T03:23:37.852Z,10.70
2019-01-16T03:24:37.856Z,7.10
2019-01-16T03:25:37.835Z,7.10
2019-01-16T03:26:37.840Z,7.60
2019-01-16T03:27:37.826Z,8.50
2019-01-16T03:28:37.801Z,9.10
2019-01-16T03:29:37.787Z,8.50
2019-01-16T03:30:37.774Z,10.90
2019-01-16T03:31:37.768Z,11.50
2019-01-16T03:32:37.773Z,7.10
2019-01-16T03:33:37.745Z,7.60
2019-01-16T03:34:37.742Z,6.40
2019-01-16T03:35:37.720Z,6.30
2019-01-16T03:36:37.725Z,6.90
2019-01-16T03:37:37.723Z,6.40
2019-01-16T03:38:37.690Z,7.00
2019-01-16T03:39:37.683Z,8.30
2019-01-16T03:40:37.691Z,6.60
2019-01-16T03:41:37.657Z,6.10
2019-01-16T03:42:37.672Z,7.10
2019-01-16T03:43:37.637Z,9.60
2019-01-16T03:44:37.621Z,7.80
2019-01-16T03:45:37.628Z,7.80
2019-01-16T03:46:37.609Z,7.60
2019-01-16T03:47:37.589Z,6.80
2019-01-16T03:48:37.606Z,6.30
2019-01-16T03:49:37.578Z,8.10
2019-01-16T03:50:37.559Z,6.60
2019-01-16T03:51:37.553Z,9.00
2019-01-16T03:52:37.536Z,10.90
2019-01-16T03:53:37.546Z,7.50
2019-01-16T03:54:37.531Z,8.20
2019-01-16T03:55:37.516Z,9.30
2019-01-16T03:56:37.497Z,6.60
2019-01-16T03:57:37.491Z,6.50
2019-01-16T03:58:37.513Z,9.40
2019-01-16T03:59:37.464Z,8.10
2019-01-16T04:00:37.453Z,10.70
2019-01-16T04:01:37.449Z,9.30
2019-01-16T04:02:37.436Z,7.20
2019-01-16T04:03:37.454Z,9.90
2019-01-16T04:04:37.416Z,8.60
2019-01-16T04:05:37.410Z,12.30
2019-01-16T04:06:37.455Z,6.40
2019-01-16T04:07:37.394Z,9.40
2019-01-16T04:08:37.405Z,7.40
2019-01-16T04:09:37.359Z,6.20
2019-01-16T04:10:37.348Z,8.30
2019-01-16T04:11:37.357Z,6.80
2019-01-16T04:12:37.331Z,9.40
2019-01-16T04:13:37.321Z,8.00
2019-01-16T04:14:37.329Z,7.60
2019-01-16T04:15:37.296Z,5.90
2019-01-16T04:16:37.287Z,9.70
2019-01-16T04:17:37.283Z,9.20
2019-01-16T04:18:37.266Z,7.30
2019-01-16T04:19:37.273Z,7.20
2019-01-16T04:20:37.245Z,8.20
2019-01-16T04:21:37.233Z,8.30
2019-01-16T04:22:37.241Z,6.40
2019-01-16T04:23:37.216Z,8.60
2019-01-16T04:24:37.222Z,8.30
2019-01-16T04:25:37.225Z,5.80
2019-01-16T04:26:37.189Z,8.70
2019-01-16T04:27:37.174Z,10.70
2019-01-16T04:28:37.158Z,9.20
2019-01-16T04:29:37.173Z,7.90
2019-01-16T04:30:37.137Z,5.90
2019-01-16T04:31:37.125Z,7.50
2019-01-16T04:32:37.145Z,6.60
2019-01-16T04:33:37.102Z,7.60
2019-01-16T04:34:37.119Z,7.10
2019-01-16T04:35:37.083Z,7.80
2019-01-16T04:36:37.073Z,9.80
2019-01-16T04:37:37.102Z,7.60
2019-01-16T04:38:37.049Z,8.20
2019-01-16T04:39:37.046Z,7.60
2019-01-16T04:40:37.048Z,9.60
2019-01-16T04:41:37.042Z,6.10
2019-01-16T04:42:37.016Z,8.40
2019-01-16T04:43:37.007Z,6.50
2019-01-16T04:44:36.993Z,6.80
2019-01-16T04:45:37.901Z,10.00
2019-01-16T04:46:36.978Z,7.60
2019-01-16T04:47:36.957Z,8.60
2019-01-16T04:48:36.949Z,9.90
2019-01-16T04:49:36.959Z,9.10
2019-01-16T04:50:36.922Z,8.30
2019-01-16T04:51:36.924Z,8.30
2019-01-16T04:52:36.904Z,9.00
2019-01-16T04:53:36.891Z,7.30
2019-01-16T04:54:36.909Z,7.50
2019-01-16T04:55:36.879Z,8.50
2019-01-16T04:56:36.861Z,11.00
2019-01-16T04:57:36.858Z,8.50
2019-01-16T04:58:36.844Z,9.30
2019-01-16T04:59:36.829Z,9.20
2019-01-16T05:00:36.882Z,7.50
2019-01-16T05:01:36.833Z,9.90
2019-01-16T05:02:36.797Z,5.90
2019-01-16T05:03:36.787Z,8.40
2019-01-16T05:04:36.780Z,9.60
2019-01-16T05:05:36.797Z,6.20
2019-01-16T05:06:36.756Z,11.40
2019-01-16T05:07:36.743Z,7.70
2019-01-16T05:08:36.730Z,7.60
2019-01-16T05:09:36.785Z,9.40
2019-01-16T05:10:36.720Z,6.70
2019-01-16T05:11:36.708Z,7.80
2019-01-16T05:12:36.699Z,5.90
2019-01-16T05:13:36.685Z,9.40
2019-01-16T05:14:36.674Z,8.60
2019-01-16T05:15:36.682Z,7.40
2019-01-16T05:16:36.651Z,7.30
2019-01-16T05:17:36.637Z,6.90
2019-01-16T05:18:36.640Z,7.50
2019-01-16T05:19:38.677Z,9.60
2019-01-16T05:20:36.630Z,6.90
2019-01-16T05:21:36.598Z,6.90
2019-01-16T05:22:36.585Z,7.50
2019-01-16T05:23:36.588Z,6.60
2019-01-16T05:24:36.574Z,7.70
2019-01-16T05:25:36.578Z,7.10
2019-01-16T05:26:36.543Z,7.40
2019-01-16T05:27:36.529Z,11.10
2019-01-16T05:28:36.542Z,7.30
2019-01-16T05:29:36.511Z,8.10
2019-01-16T05:30:36.532Z,10.70
2019-01-16T05:31:44.115Z,8.40
2019-01-16T05:32:36.539Z,5.80
2019-01-16T05:33:36.577Z,8.10
2019-01-16T05:34:36.485Z,8.50
2019-01-16T05:35:36.465Z,8.40
2019-01-16T05:36:36.459Z,9.10
2019-01-16T05:37:36.430Z,8.60
2019-01-16T05:38:36.419Z,7.40
2019-01-16T05:39:36.407Z,8.10
2019-01-16T05:40:36.396Z,7.70
2019-01-16T05:41:36.425Z,7.80
2019-01-16T05:42:36.377Z,7.20
2019-01-16T05:43:36.369Z,6.10
2019-01-16T05:44:36.352Z,5.60
2019-01-16T05:45:36.341Z,7.70
2019-01-16T05:46:36.359Z,8.10
2019-01-16T05:47:36.325Z,8.00
2019-01-16T05:48:36.316Z,7.80
2019-01-16T05:49:36.299Z,6.50
2019-01-16T05:50:36.290Z,5.00
2019-01-16T05:51:36.309Z,6.20
2019-01-16T05:52:36.294Z,7.40
2019-01-16T05:53:36.257Z,6.20
2019-01-16T05:54:36.248Z,7.20
2019-01-16T05:55:36.233Z,5.10
2019-01-16T05:56:36.345Z,7.30
2019-01-16T05:59:07.768Z,7.70
2019-01-16T06:00:07.653Z,6.00
2019-01-16T06:02:17.494Z,7.00
2019-01-16T06:03:25.170Z,5.00
2019-01-16T06:04:17.431Z,8.40
2019-01-16T06:05:24.964Z,7.50
2019-01-16T06:06:17.429Z,5.80
2019-01-16T06:08:33.135Z,9.80
2019-01-16T06:09:40.662Z,7.30
2019-01-16T06:10:33.055Z,6.60
2019-01-16T06:11:40.723Z,7.10
2019-01-16T06:12:33.034Z,5.80
2019-01-16T06:13:40.681Z,6.20
2019-01-16T06:14:32.994Z,6.30
2019-01-16T06:15:40.558Z,7.20
2019-01-16T06:16:33.025Z,7.70
2019-01-16T06:17:40.536Z,6.10
2019-01-16T06:18:32.970Z,9.00
2019-01-16T06:19:41.543Z,6.30
2019-01-16T06:20:32.983Z,8.60
2019-01-16T06:21:40.510Z,5.60
2019-01-16T06:22:32.899Z,6.80
2019-01-16T06:23:40.500Z,6.10
2019-01-16T06:24:32.901Z,8.00
2019-01-16T06:26:42.699Z,6.40
2019-01-16T06:27:51.346Z,6.80
2019-01-16T06:28:42.641Z,7.80
2019-01-16T06:30:52.399Z,6.80
2019-01-16T06:31:59.906Z,4.60
2019-01-16T06:32:52.337Z,6.10
2019-01-16T06:33:59.940Z,7.30
2019-01-16T06:34:52.357Z,6.80
2019-01-16T06:36:00.885Z,7.00
2019-01-16T06:36:52.270Z,5.70
2019-01-16T06:37:52.328Z,4.10
2019-01-16T06:38:52.255Z,5.90
2019-01-16T06:39:52.185Z,4.90
2019-01-16T06:40:52.168Z,6.40
2019-01-16T06:41:52.155Z,6.40
2019-01-16T06:42:52.143Z,6.60
2019-01-16T06:43:52.132Z,4.50
2019-01-16T06:44:52.144Z,7.00
2019-01-16T06:45:52.125Z,4.80
2019-01-16T06:46:52.107Z,5.90
2019-01-16T06:47:52.092Z,4.90
2019-01-16T06:48:52.080Z,6.00
2019-01-16T06:49:52.092Z,6.70
2019-01-16T06:50:52.077Z,7.10
2019-01-16T06:51:52.050Z,5.00
2019-01-16T06:52:52.043Z,6.10
2019-01-16T06:53:52.027Z,8.30
2019-01-16T06:54:52.036Z,5.00
2019-01-16T06:55:52.042Z,6.80
2019-01-16T06:56:51.995Z,5.20
2019-01-16T06:57:51.989Z,5.90
2019-01-16T06:58:51.973Z,5.10
2019-01-16T06:59:51.992Z,4.60
2019-01-16T07:00:51.954Z,4.10
2019-01-16T07:01:51.949Z,8.20
2019-01-16T07:02:51.930Z,6.80
2019-01-16T07:03:51.922Z,4.40
2019-01-16T07:04:51.926Z,5.60
2019-01-16T07:05:51.922Z,6.50
2019-01-16T07:06:51.887Z,4.60
2019-01-16T07:07:51.878Z,5.30
2019-01-16T07:08:51.868Z,5.80
2019-01-16T07:09:51.864Z,7.30
2019-01-16T07:10:51.937Z,5.40
2019-01-16T07:11:51.894Z,5.40
2019-01-16T07:12:51.829Z,4.60
2019-01-16T07:13:51.829Z,6.00
2019-01-16T07:14:51.807Z,6.40
2019-01-16T07:15:51.813Z,5.90
2019-01-16T07:16:51.784Z,8.70
2019-01-16T07:17:51.771Z,7.70
2019-01-16T07:18:51.767Z,5.40
2019-01-16T07:19:51.774Z,8.10
2019-01-16T07:20:51.738Z,5.60
2019-01-16T07:21:51.729Z,6.90
2019-01-16T07:22:51.781Z,5.00
2019-01-16T07:23:51.706Z,6.00
2019-01-16T07:24:51.725Z,6.50
2019-01-16T07:25:51.692Z,6.90
2019-01-16T07:26:51.675Z,9.30
2019-01-16T07:27:51.665Z,5.20
2019-01-16T07:28:51.664Z,6.20
2019-01-16T07:29:51.670Z,8.30
2019-01-16T07:30:51.636Z,7.10
2019-01-16T07:31:51.661Z,7.10
2019-01-16T07:32:51.633Z,6.50
2019-01-16T07:33:51.611Z,6.10
2019-01-16T07:34:51.600Z,7.80
2019-01-16T07:35:51.612Z,7.40
2019-01-16T07:36:51.574Z,7.20
2019-01-16T07:37:51.561Z,8.40
2019-01-16T07:38:51.552Z,4.50
2019-01-16T07:39:51.538Z,7.10
2019-01-16T07:40:51.587Z,8.80
2019-01-16T07:41:51.515Z,7.60
2019-01-16T07:42:51.535Z,8.10
2019-01-16T07:43:51.933Z,5.50
2019-01-16T07:44:51.494Z,7.60
2019-01-16T07:45:51.516Z,6.80
2019-01-16T07:46:51.465Z,8.80
2019-01-16T07:47:51.458Z,5.50
2019-01-16T07:48:51.449Z,7.00
2019-01-16T07:49:51.436Z,8.30
2019-01-16T07:50:51.481Z,6.90
2019-01-16T07:51:51.419Z,5.50
2019-01-16T07:52:51.404Z,9.50
2019-01-16T07:53:51.391Z,7.20
2019-01-16T07:54:51.401Z,9.20
2019-01-16T07:55:51.395Z,7.20
2019-01-16T07:56:51.372Z,7.40
2019-01-16T07:57:51.351Z,8.20
2019-01-16T07:58:51.344Z,7.10
2019-01-16T07:59:51.330Z,7.40
2019-01-16T08:00:51.319Z,8.60
2019-01-16T08:01:51.331Z,6.90
2019-01-16T08:02:51.298Z,8.40
2019-01-16T08:03:51.288Z,9.90
2019-01-16T08:04:51.292Z,9.00
2019-01-16T08:05:51.265Z,7.80
2019-01-16T08:06:51.300Z,8.00
2019-01-16T08:07:51.254Z,9.70
2019-01-16T08:08:51.238Z,10.60
2019-01-16T08:09:51.275Z,7.50
2019-01-16T08:10:51.216Z,9.90
2019-01-16T08:11:51.218Z,10.20
2019-01-16T08:12:51.220Z,8.10
2019-01-16T08:13:51.208Z,9.80
2019-01-16T08:14:51.172Z,8.00
2019-01-16T08:15:51.164Z,8.60
2019-01-16T08:16:51.151Z,8.50
2019-01-16T08:17:51.163Z,8.50
2019-01-16T08:18:51.131Z,8.80
2019-01-16T08:19:51.142Z,9.10
2019-01-16T08:20:51.110Z,15.20
2019-01-16T08:21:51.102Z,11.80
2019-01-16T08:22:51.113Z,10.20
2019-01-16T08:23:51.085Z,11.40
2019-01-16T08:24:51.070Z,10.10
2019-01-16T08:25:51.069Z,11.90
2019-01-16T08:26:51.053Z,11.80
2019-01-16T08:27:51.063Z,11.80
2019-01-16T08:28:51.027Z,12.80
2019-01-16T08:29:51.020Z,14.70
2019-01-16T08:30:51.029Z,11.80
2019-01-16T08:31:51.008Z,13.20
2019-01-16T08:32:51.004Z,11.90
2019-01-16T08:33:50.983Z,13.50
2019-01-16T08:34:50.966Z,16.80
2019-01-16T08:35:50.955Z,16.70
2019-01-16T08:36:50.952Z,14.90
2019-01-16T08:37:50.954Z,14.80
2019-01-16T08:38:50.937Z,14.40
2019-01-16T08:39:51.014Z,12.30
2019-01-16T08:40:50.898Z,14.10
2019-01-16T08:41:50.898Z,16.10
2019-01-16T08:42:50.915Z,17.80
2019-01-16T08:43:50.880Z,19.70
2019-01-16T08:44:50.912Z,14.90
2019-01-16T08:45:50.848Z,14.10
2019-01-16T08:46:50.845Z,19.40
2019-01-16T08:47:50.852Z,15.30
2019-01-16T08:48:50.847Z,18.50
2019-01-16T08:49:50.827Z,20.90
2019-01-16T08:50:50.796Z,16.80
2019-01-16T08:51:50.787Z,15.80
2019-01-16T08:52:50.799Z,15.20
2019-01-16T08:53:50.778Z,15.90
2019-01-16T08:54:50.788Z,17.30
2019-01-16T08:55:50.747Z,19.60
2019-01-16T08:56:50.775Z,21.30
2019-01-16T08:57:50.763Z,16.50
2019-01-16T08:58:50.717Z,18.30
2019-01-16T08:59:50.710Z,15.50
2019-01-16T09:00:50.700Z,18.60
2019-01-16T09:01:50.688Z,19.00
2019-01-16T09:02:50.697Z,17.10
2019-01-16T09:03:50.674Z,16.10
2019-01-16T09:04:50.677Z,16.90
2019-01-16T09:05:50.647Z,17.30
2019-01-16T09:06:50.629Z,15.20
2019-01-16T09:07:50.619Z,14.60
2019-01-16T09:08:50.629Z,16.70
2019-01-16T09:09:50.633Z,16.30
2019-01-16T09:10:50.592Z,15.10
2019-01-16T09:11:50.583Z,15.50
2019-01-16T09:12:50.584Z,18.30
2019-01-16T09:13:50.627Z,16.20
2019-01-16T09:14:50.569Z,13.80
2019-01-16T09:15:50.540Z,16.60
2019-01-16T09:16:50.530Z,19.40
2019-01-16T09:17:50.518Z,13.10
2019-01-16T09:18:50.526Z,14.50
2019-01-16T09:19:50.501Z,15.70
2019-01-16T09:20:50.511Z,16.10
2019-01-16T09:21:50.486Z,17.20
2019-01-16T09:22:50.470Z,15.90
2019-01-16T09:23:50.472Z,16.30
2019-01-16T09:24:50.458Z,15.00
2019-01-16T09:25:50.435Z,14.90
2019-01-16T09:26:50.433Z,15.00
2019-01-16T09:27:50.410Z,17.00
2019-01-16T09:28:50.421Z,14.90
2019-01-16T09:29:50.399Z,11.10
2019-01-16T09:30:50.410Z,12.90
2019-01-16T09:31:50.377Z,14.70
2019-01-16T09:32:50.407Z,11.60
2019-01-16T09:33:50.390Z,14.60
2019-01-16T09:34:50.343Z,10.80
2019-01-16T09:35:50.344Z,10.60
2019-01-16T09:36:50.332Z,13.80
2019-01-16T09:37:50.316Z,12.70
2019-01-16T09:38:50.303Z,13.20
2019-01-16T09:39:50.310Z,11.70
2019-01-16T09:40:50.281Z,13.50
2019-01-16T09:41:50.281Z,14.50
2019-01-16T09:42:50.257Z,12.20
2019-01-16T09:43:50.244Z,10.50
2019-01-16T09:44:50.265Z,12.70
2019-01-16T09:45:50.228Z,10.60
2019-01-16T09:46:50.235Z,11.60
2019-01-16T09:47:50.215Z,10.90
2019-01-16T09:48:50.194Z,13.70
2019-01-16T09:49:50.258Z,9.70
2019-01-16T09:50:50.177Z,10.00
2019-01-16T09:51:50.177Z,13.20
2019-01-16T09:52:50.154Z,12.80
2019-01-16T09:53:50.909Z,12.80
2019-01-16T09:54:50.164Z,10.90
2019-01-16T09:55:50.122Z,9.40
2019-01-16T09:56:50.116Z,11.80
2019-01-16T09:57:50.097Z,12.50
2019-01-16T09:58:50.085Z,11.90
2019-01-16T09:59:50.157Z,11.60
2019-01-16T10:00:50.067Z,9.90
2019-01-16T10:01:50.064Z,11.10
2019-01-16T10:02:50.064Z,11.20
2019-01-16T10:03:50.039Z,10.80
2019-01-16T10:04:50.103Z,13.30
2019-01-16T10:05:50.017Z,13.30
2019-01-16T10:06:50.007Z,11.20
2019-01-16T10:07:49.997Z,9.60
2019-01-16T10:08:50.002Z,10.00
2019-01-16T10:09:49.980Z,10.10
2019-01-16T10:10:50.017Z,11.60
2019-01-16T10:11:49.965Z,11.70
2019-01-16T10:12:49.946Z,10.10
2019-01-16T10:13:49.932Z,14.60
2019-01-16T10:14:49.924Z,11.20
2019-01-16T10:15:50.005Z,9.80
2019-01-16T10:16:49.905Z,9.80
2019-01-16T10:17:49.896Z,13.40
2019-01-16T10:18:49.880Z,10.40
2019-01-16T10:19:49.875Z,8.90
2019-01-16T10:20:55.592Z,10.70
2019-01-16T10:21:50.848Z,13.30
2019-01-16T10:22:49.849Z,12.40
2019-01-16T10:23:49.895Z,12.40
2019-01-16T10:24:49.823Z,12.70
2019-01-16T10:25:49.835Z,13.60
2019-01-16T10:26:49.803Z,13.20
2019-01-16T10:27:49.812Z,15.00
2019-01-16T10:28:49.776Z,11.80
2019-01-16T10:29:49.770Z,13.70
2019-01-16T10:30:49.756Z,12.10
2019-01-16T10:31:49.785Z,12.30
2019-01-16T10:32:49.732Z,12.00
2019-01-16T10:33:49.735Z,10.40
2019-01-16T10:34:49.717Z,15.20
2019-01-16T10:35:49.708Z,11.60
2019-01-16T10:36:49.716Z,11.00
2019-01-16T10:37:49.702Z,10.40
2019-01-16T10:38:49.688Z,11.00
2019-01-16T10:39:49.672Z,11.20
2019-01-16T10:40:49.654Z,11.30
2019-01-16T10:41:49.683Z,12.10
2019-01-16T10:42:49.632Z,9.50
2019-01-16T10:43:49.643Z,9.00
2019-01-16T10:44:49.626Z,12.70
2019-01-16T10:45:49.623Z,12.70
2019-01-16T10:46:49.618Z,9.50
2019-01-16T10:47:49.582Z,11.70
2019-01-16T10:48:50.051Z,10.10
2019-01-16T10:49:49.603Z,10.20
2019-01-16T10:50:49.566Z,11.90
2019-01-16T10:51:49.574Z,13.10
2019-01-16T10:52:49.528Z,11.10
2019-01-16T10:53:49.513Z,12.60
2019-01-16T10:54:49.509Z,11.30
2019-01-16T10:55:49.506Z,9.60
2019-01-16T10:56:49.490Z,13.60
2019-01-16T10:57:49.496Z,12.00
2019-01-16T10:58:49.471Z,16.50
2019-01-16T10:59:49.455Z,13.40
2019-01-16T11:00:49.456Z,11.70
2019-01-16T11:01:49.450Z,11.30
2019-01-16T11:02:49.426Z,9.60
2019-01-16T11:03:49.421Z,13.90
2019-01-16T11:04:49.405Z,13.20
2019-01-16T11:05:49.421Z,10.10
2019-01-16T11:06:49.412Z,15.90
2019-01-16T11:07:49.372Z,12.70
2019-01-16T11:08:49.362Z,14.20
2019-01-16T11:09:49.364Z,12.60
2019-01-16T11:10:49.352Z,17.00
2019-01-16T11:11:49.333Z,14.50
2019-01-16T11:12:49.343Z,13.50
2019-01-16T11:13:49.394Z,15.70
2019-01-16T11:14:49.303Z,11.00
2019-01-16T11:15:49.285Z,10.20
2019-01-16T11:16:56.415Z,14.80
2019-01-16T11:17:50.286Z,12.40
2019-01-16T11:18:49.257Z,14.40
2019-01-16T11:19:49.325Z,12.60
2019-01-16T11:20:49.243Z,13.60
2019-01-16T11:21:49.228Z,15.30
2019-01-16T11:22:49.258Z,10.10
2019-01-16T11:23:49.202Z,15.50
2019-01-16T11:24:49.207Z,15.50
2019-01-16T11:25:49.186Z,16.50
2019-01-16T11:26:49.170Z,12.50
2019-01-16T11:27:49.192Z,11.20
2019-01-16T11:28:49.151Z,12.10
2019-01-16T11:29:49.201Z,15.30
2019-01-16T11:30:49.156Z,13.70
2019-01-16T11:31:49.123Z,12.90
2019-01-16T11:32:49.148Z,9.10
2019-01-16T11:33:49.129Z,13.20
2019-01-16T11:34:49.112Z,16.00
2019-01-16T11:35:49.075Z,14.70
2019-01-16T11:36:49.088Z,13.80
2019-01-16T11:37:49.060Z,14.40
2019-01-16T11:38:49.062Z,12.90
2019-01-16T11:39:49.037Z,13.40
2019-01-16T11:40:49.282Z,13.40
2019-01-16T11:41:49.015Z,15.10
2019-01-16T11:42:49.011Z,17.50
2019-01-16T11:43:49.017Z,14.40
2019-01-16T11:44:49.037Z,15.40
2019-01-16T11:45:48.976Z,12.90
2019-01-16T11:46:48.963Z,13.00
2019-01-16T11:47:49.008Z,11.10
2019-01-16T11:48:48.957Z,13.50
2019-01-16T11:49:48.959Z,13.90
2019-01-16T11:50:48.922Z,13.70
2019-01-16T11:51:48.913Z,13.10
2019-01-16T11:52:48.904Z,14.80
2019-01-16T11:53:48.899Z,13.80
2019-01-16T11:54:48.897Z,16.80
2019-01-16T11:55:48.899Z,16.70
2019-01-16T11:56:48.866Z,19.50
2019-01-16T11:57:48.850Z,14.60
2019-01-16T11:58:48.880Z,17.40
2019-01-16T11:59:48.851Z,20.00
2019-01-16T12:00:48.822Z,16.90
2019-01-16T12:01:48.804Z,14.50
2019-01-16T12:02:48.801Z,13.10
2019-01-16T12:03:48.811Z,12.40
2019-01-16T12:04:48.906Z,10.60
2019-01-16T12:05:48.767Z,10.80
2019-01-16T12:06:48.751Z,12.60
2019-01-16T12:07:48.740Z,10.40
2019-01-16T12:08:48.740Z,15.10
2019-01-16T12:09:48.747Z,12.00
2019-01-16T12:10:48.718Z,9.50
2019-01-16T12:11:48.702Z,10.20
2019-01-16T12:12:48.693Z,8.80
2019-01-16T12:13:48.682Z,14.40
2019-01-16T12:14:48.681Z,14.50
2019-01-16T12:15:48.677Z,13.30
2019-01-16T12:16:48.645Z,12.80
2019-01-16T12:17:48.640Z,13.70
2019-01-16T12:18:48.642Z,11.10
2019-01-16T12:19:48.643Z,10.60
2019-01-16T12:20:48.612Z,9.50
2019-01-16T12:21:48.593Z,11.10
2019-01-16T12:22:48.584Z,9.90
2019-01-16T12:23:48.572Z,12.40
2019-01-16T12:24:48.583Z,12.30
2019-01-16T12:25:48.553Z,10.90
2019-01-16T12:26:48.542Z,9.50
2019-01-16T12:27:48.528Z,10.90
2019-01-16T12:28:48.567Z,12.10
2019-01-16T12:29:48.519Z,13.70
2019-01-16T12:30:48.520Z,17.00
2019-01-16T12:31:48.490Z,10.20
2019-01-16T12:32:48.475Z,10.10
2019-01-16T12:33:48.470Z,12.30
2019-01-16T12:34:48.461Z,13.70
2019-01-16T12:35:48.485Z,13.00
2019-01-16T12:36:48.452Z,9.60
2019-01-16T12:37:48.453Z,13.90
2019-01-16T12:40:20.369Z,10.10
2019-01-16T12:42:41.216Z,14.30
2019-01-16T12:44:56.126Z,11.80
2019-01-16T12:47:28.769Z,9.40
2019-01-16T12:50:13.632Z,11.20
2019-01-16T12:51:13.611Z,12.00
2019-01-16T12:52:22.299Z,8.30
2019-01-16T12:53:13.676Z,10.50
2019-01-16T12:55:53.877Z,9.70
2019-01-16T12:58:13.456Z,13.70
2019-01-16T13:00:40.979Z,13.00
2019-01-16T13:02:57.924Z,16.70
2019-01-16T13:03:57.827Z,11.50
2019-01-16T13:06:07.610Z,9.60
2019-01-16T13:07:07.579Z,15.80
2019-01-16T13:08:07.585Z,8.60
2019-01-16T13:09:16.364Z,12.10
2019-01-16T13:10:07.502Z,13.70
2019-01-16T13:11:15.071Z,10.40
2019-01-16T13:12:16.920Z,9.80
2019-01-16T13:13:15.106Z,11.10
2019-01-16T13:14:07.449Z,11.60
2019-01-16T13:16:17.281Z,15.90
2019-01-16T13:17:17.208Z,15.20
2019-01-16T13:18:25.790Z,12.40
2019-01-16T13:19:17.179Z,10.30
2019-01-16T13:20:17.222Z,11.20
2019-01-16T13:21:17.117Z,13.50
2019-01-16T13:22:17.126Z,12.50
2019-01-16T13:23:25.844Z,11.40
2019-01-16T13:24:17.113Z,8.20
2019-01-16T13:26:27.890Z,9.70
2019-01-16T13:28:37.600Z,17.00
2019-01-16T13:29:37.727Z,10.20
2019-01-16T13:30:37.599Z,14.20
2019-01-16T13:31:37.502Z,13.00
2019-01-16T13:32:37.500Z,11.20